Time;durP1;ratioP1;P1;durP2;ratioP2;P2;SDS_P1;SDS_P2;PMS_P1;PMS_P2;Temp;Humidity;BMP_temperature;BMP_pressure;BME280_temperature;BME280_humidity;BME280_pressure;Samples;Min_cycle;Max_cycle;Signal;HPM_P1;HPM_P2
2021/04/28 00:01:47;;;;;;;29.20;26.10;;;9.80;99.90;;;;;;6255692;28;20505;-63
2021/04/28 00:04:50;;;;;;;28.30;25.30;;;9.80;99.90;;;;;;6252717;28;20471;-64
2021/04/28 00:07:52;;;;;;;27.93;25.17;;;9.70;99.90;;;;;;6252941;28;20478;-64
2021/04/28 00:10:55;;;;;;;26.57;23.70;;;9.80;99.90;;;;;;6253013;28;20489;-64
2021/04/28 00:13:58;;;;;;;31.70;25.30;;;9.70;99.90;;;;;;6252932;28;20536;-65
2021/04/28 00:17:00;;;;;;;30.50;24.97;;;9.70;99.90;;;;;;6244177;28;20474;-65
2021/04/28 00:20:06;;;;;;;31.67;26.97;;;9.80;99.90;;;;;;6252282;28;20467;-64
2021/04/28 00:23:10;;;;;;;27.27;24.37;;;9.70;99.90;;;;;;6252680;28;20479;-64
2021/04/28 00:26:16;;;;;;;27.50;24.10;;;9.70;99.90;;;;;;6252067;28;20475;-64
2021/04/28 00:29:19;;;;;;;27.27;24.37;;;9.70;99.90;;;;;;6252418;28;20806;-63
2021/04/28 00:32:22;;;;;;;30.73;26.83;;;9.70;99.90;;;;;;6252328;28;20517;-64
2021/04/28 00:35:24;;;;;;;29.30;26.37;;;9.70;99.90;;;;;;6252164;28;20482;-63
2021/04/28 00:38:26;;;;;;;27.23;24.20;;;9.70;99.90;;;;;;6251519;28;20475;-62
2021/04/28 00:41:28;;;;;;;30.10;26.00;;;9.70;99.90;;;;;;6251847;28;20496;-61
2021/04/28 00:44:32;;;;;;;29.63;26.60;;;9.80;99.90;;;;;;6252060;28;20479;-61
2021/04/28 00:47:40;;;;;;;32.63;29.17;;;9.70;99.90;;;;;;6251649;28;20467;-62
2021/04/28 00:50:45;;;;;;;32.60;29.10;;;9.70;99.90;;;;;;6252217;28;20479;-62
2021/04/28 00:53:48;;;;;;;42.70;27.87;;;9.60;99.90;;;;;;6251356;28;20466;-62
2021/04/28 00:56:54;;;;;;;35.83;29.67;;;9.50;99.90;;;;;;6252114;28;20431;-63
2021/04/28 00:59:58;;;;;;;36.97;30.80;;;9.50;99.90;;;;;;6251434;28;20534;-62
2021/04/28 01:03:00;;;;;;;33.03;29.47;;;9.50;99.90;;;;;;6251288;28;20495;-62
2021/04/28 01:06:05;;;;;;;32.23;28.90;;;9.40;99.90;;;;;;6251148;28;20942;-63
2021/04/28 01:09:08;;;;;;;38.43;30.77;;;9.30;99.90;;;;;;6251860;28;20463;-62
2021/04/28 01:12:11;;;;;;;34.10;29.20;;;9.30;99.90;;;;;;6251466;28;20471;-62
2021/04/28 01:15:18;;;;;;;32.83;27.90;;;9.30;99.90;;;;;;6251726;28;20471;-62
2021/04/28 01:18:21;;;;;;;31.90;28.50;;;9.30;99.90;;;;;;6247060;28;20479;-61
2021/04/28 01:21:24;;;;;;;32.87;28.13;;;9.30;99.90;;;;;;6251278;28;20479;-61
2021/04/28 01:24:27;;;;;;;34.40;29.43;;;9.30;99.90;;;;;;6251248;28;20482;-61
2021/04/28 01:27:29;;;;;;;31.40;28.10;;;9.30;99.90;;;;;;6251014;28;20473;-61
2021/04/28 01:30:35;;;;;;;30.83;27.53;;;9.30;99.90;;;;;;6251260;28;20475;-61
2021/04/28 01:33:40;;;;;;;31.67;28.20;;;9.20;99.90;;;;;;6250646;28;20494;-61
2021/04/28 01:36:43;;;;;;;34.73;27.00;;;9.20;99.90;;;;;;6250817;28;20482;-61
2021/04/28 01:39:48;;;;;;;30.00;25.80;;;9.20;99.90;;;;;;6250405;28;20467;-62
2021/04/28 01:42:51;;;;;;;30.97;26.67;;;9.20;99.90;;;;;;6250864;28;20475;-62
2021/04/28 01:45:55;;;;;;;31.60;26.93;;;9.20;99.90;;;;;;6250517;28;20475;-62
2021/04/28 01:48:59;;;;;;;29.43;26.50;;;9.20;99.90;;;;;;6249819;28;20485;-62
2021/04/28 01:52:02;;;;;;;30.83;26.97;;;9.20;99.90;;;;;;6250637;28;20482;-62
2021/04/28 01:55:06;;;;;;;28.37;25.40;;;9.20;99.90;;;;;;6250551;28;20817;-62
2021/04/28 01:58:09;;;;;;;31.47;25.93;;;9.20;99.90;;;;;;6250169;28;20486;-62
2021/04/28 02:01:11;;;;;;;31.40;27.37;;;9.20;99.90;;;;;;6250441;28;20471;-62
2021/04/28 02:04:15;;;;;;;28.97;25.90;;;9.20;99.90;;;;;;6249867;28;20474;-62
2021/04/28 02:07:17;;;;;;;30.57;27.37;;;9.20;99.90;;;;;;6250398;28;20546;-62
2021/04/28 02:10:21;;;;;;;29.33;26.37;;;9.10;99.90;;;;;;6250599;28;20466;-62
2021/04/28 02:13:23;;;;;;;30.63;26.70;;;9.20;99.90;;;;;;6250206;28;20994;-62
2021/04/28 02:16:27;;;;;;;28.17;25.27;;;9.20;99.90;;;;;;6250090;28;20481;-61
2021/04/28 02:19:30;;;;;;;28.33;25.43;;;9.20;99.90;;;;;;6249608;28;20989;-62
2021/04/28 02:22:33;;;;;;;31.73;28.63;;;9.20;99.90;;;;;;6249699;28;20471;-62
2021/04/28 02:25:39;;;;;;;28.70;25.70;;;9.20;99.90;;;;;;6249743;28;20535;-62
2021/04/28 02:28:41;;;;;;;29.20;26.00;;;9.20;99.90;;;;;;6249927;28;20561;-62
2021/04/28 02:31:43;;;;;;;27.53;24.50;;;9.20;99.90;;;;;;6249724;28;20959;-62
2021/04/28 02:34:45;;;;;;;30.87;27.70;;;9.20;99.90;;;;;;6249769;28;20609;-62
2021/04/28 02:37:55;;;;;;;32.73;28.53;;;9.20;99.90;;;;;;6249242;28;20962;-61
2021/04/28 02:41:00;;;;;;;30.73;27.40;;;9.20;99.90;;;;;;6249821;28;20471;-62
2021/04/28 02:44:04;;;;;;;32.07;28.60;;;9.30;99.90;;;;;;6249342;28;20841;-62
2021/04/28 02:47:07;;;;;;;32.30;27.07;;;9.30;99.90;;;;;;6249721;28;20466;-63
2021/04/28 02:50:15;;;;;;;30.93;27.57;;;9.30;99.90;;;;;;6249552;28;20473;-62
2021/04/28 02:53:17;;;;;;;30.13;27.20;;;9.40;99.90;;;;;;6249277;28;20483;-61
2021/04/28 02:56:20;;;;;;;29.47;26.33;;;9.40;99.90;;;;;;6249749;28;20470;-61
2021/04/28 02:59:24;;;;;;;29.77;26.73;;;9.40;99.90;;;;;;6250186;28;20983;-64
2021/04/28 03:02:29;;;;;;;30.30;26.63;;;9.40;99.90;;;;;;6254348;28;20479;-64
2021/04/28 03:05:32;;;;;;;33.33;28.43;;;9.40;99.90;;;;;;6253964;28;20479;-64
2021/04/28 03:08:36;;;;;;;32.77;28.80;;;9.40;99.90;;;;;;6254838;28;20525;-64
2021/04/28 03:11:40;;;;;;;32.10;28.70;;;9.60;99.90;;;;;;6253989;28;20476;-65
2021/04/28 03:14:43;;;;;;;30.73;27.47;;;9.50;99.90;;;;;;6254410;28;20986;-64
2021/04/28 03:17:46;;;;;;;32.00;28.70;;;9.40;99.90;;;;;;6253793;28;20479;-64
2021/04/28 03:20:48;;;;;;;31.50;28.07;;;9.40;99.90;;;;;;6254164;28;20493;-64
2021/04/28 03:23:51;;;;;;;30.80;26.93;;;9.40;99.90;;;;;;6249456;28;20459;-64
2021/04/28 03:27:08;;;;;;;31.10;27.80;;;9.40;99.90;;;;;;6253908;28;20449;-65
2021/04/28 03:30:11;;;;;;;33.63;30.03;;;9.40;99.90;;;;;;6253950;28;20534;-64
2021/04/28 03:33:13;;;;;;;34.43;30.30;;;9.40;99.90;;;;;;6253965;28;20474;-63
2021/04/28 03:36:15;;;;;;;32.33;27.90;;;9.30;99.90;;;;;;6253876;28;20447;-64
2021/04/28 03:39:18;;;;;;;35.97;30.93;;;9.30;99.90;;;;;;6253606;28;20478;-64
2021/04/28 03:42:22;;;;;;;32.80;29.30;;;9.30;99.90;;;;;;6253791;28;20493;-64
2021/04/28 03:45:24;;;;;;;30.90;27.60;;;9.30;99.90;;;;;;6253261;28;20470;-63
2021/04/28 03:48:27;;;;;;;35.93;29.83;;;9.30;99.90;;;;;;6253258;28;20989;-63
2021/04/28 03:51:29;;;;;;;30.57;27.10;;;9.20;99.90;;;;;;6253400;28;20482;-63
2021/04/28 03:54:31;;;;;;;31.27;26.90;;;9.20;99.90;;;;;;6253337;28;20478;-64
2021/04/28 03:57:34;;;;;;;36.50;31.00;;;9.20;99.90;;;;;;6253585;28;20609;-64
2021/04/28 04:00:36;;;;;;;31.60;28.30;;;9.20;99.90;;;;;;6253953;28;20471;-64
2021/04/28 04:03:39;;;;;;;33.17;29.57;;;9.30;99.90;;;;;;6252171;28;20817;-64
2021/04/28 04:06:43;;;;;;;32.90;29.40;;;9.30;99.90;;;;;;6253129;28;20470;-63
2021/04/28 04:09:46;;;;;;;34.07;29.77;;;9.30;99.90;;;;;;6252984;28;20463;-64
2021/04/28 04:12:49;;;;;;;32.87;29.33;;;9.20;99.90;;;;;;6252192;28;20485;-64
2021/04/28 04:15:51;;;;;;;35.17;31.33;;;9.20;99.90;;;;;;6253610;28;20467;-64
2021/04/28 04:18:54;;;;;;;36.10;32.33;;;9.20;99.90;;;;;;6252243;28;20494;-65
2021/04/28 04:21:56;;;;;;;35.87;31.87;;;9.20;99.90;;;;;;6252892;28;20463;-64
2021/04/28 04:24:58;;;;;;;36.90;32.97;;;9.20;99.90;;;;;;6252717;28;20490;-64
2021/04/28 04:28:01;;;;;;;37.27;32.67;;;9.10;99.90;;;;;;6252735;28;20485;-64
2021/04/28 04:31:04;;;;;;;35.30;29.70;;;9.10;99.90;;;;;;6242862;28;20490;-64
2021/04/28 04:34:06;;;;;;;39.00;32.30;;;9.20;99.90;;;;;;6252254;28;20479;-63
2021/04/28 04:37:08;;;;;;;37.13;33.17;;;9.20;99.90;;;;;;6251459;28;20912;-63
2021/04/28 04:40:11;;;;;;;35.90;32.03;;;9.20;99.90;;;;;;6252283;28;20486;-63
2021/04/28 04:43:14;;;;;;;42.07;34.07;;;9.20;99.90;;;;;;6252158;28;20644;-64
2021/04/28 04:46:17;;;;;;;34.73;31.10;;;9.20;99.90;;;;;;6251972;28;20471;-64
2021/04/28 04:49:22;;;;;;;37.53;33.03;;;9.30;99.90;;;;;;6252103;28;20467;-65
2021/04/28 04:52:24;;;;;;;34.60;30.00;;;9.30;99.90;;;;;;6251569;28;21009;-64
2021/04/28 04:55:26;;;;;;;34.00;30.37;;;9.40;99.90;;;;;;6252004;28;20471;-63
2021/04/28 04:58:30;;;;;;;33.80;30.23;;;9.40;99.90;;;;;;6251711;28;20558;-64
2021/04/28 05:01:32;;;;;;;33.97;30.27;;;9.40;99.90;;;;;;6251632;28;20466;-64
2021/04/28 05:04:34;;;;;;;37.83;33.23;;;9.50;99.90;;;;;;6250745;28;20467;-64
2021/04/28 05:07:37;;;;;;;36.13;32.23;;;9.60;99.90;;;;;;6251426;28;20481;-64
2021/04/28 05:10:39;;;;;;;36.53;31.90;;;9.60;99.90;;;;;;6251580;28;20475;-65
2021/04/28 05:13:42;;;;;;;35.20;31.40;;;9.60;99.90;;;;;;6251312;28;20485;-64
2021/04/28 05:16:44;;;;;;;37.80;31.10;;;9.70;99.90;;;;;;6251447;28;20467;-64
2021/04/28 05:19:46;;;;;;;37.90;32.27;;;9.70;99.90;;;;;;6251318;28;20556;-64
2021/04/28 05:22:48;;;;;;;37.20;33.27;;;9.70;99.90;;;;;;6250759;28;20471;-64
2021/04/28 05:25:51;;;;;;;36.70;32.10;;;9.70;99.90;;;;;;6251101;28;20474;-64
2021/04/28 05:28:54;;;;;;;38.97;34.70;;;9.80;99.90;;;;;;6250989;28;20842;-64
2021/04/28 05:31:56;;;;;;;35.40;31.57;;;9.70;99.90;;;;;;6250955;28;20474;-64
2021/04/28 05:34:59;;;;;;;33.70;30.17;;;9.80;99.90;;;;;;6246463;28;20608;-63
2021/04/28 05:38:01;;;;;;;34.53;30.60;;;9.90;99.90;;;;;;6250497;28;20467;-63
2021/04/28 05:41:04;;;;;;;35.53;31.80;;;10.00;99.90;;;;;;6250890;28;20469;-64
2021/04/28 05:44:08;;;;;;;34.40;30.70;;;10.00;99.90;;;;;;6250468;28;20481;-64
2021/04/28 05:47:10;;;;;;;35.87;30.90;;;10.10;99.90;;;;;;6250555;28;20908;-64
2021/04/28 05:50:15;;;;;;;32.40;28.97;;;10.20;99.90;;;;;;6250575;28;20467;-64
2021/04/28 05:53:17;;;;;;;36.60;32.77;;;10.20;99.90;;;;;;6250192;28;20479;-64
2021/04/28 05:56:19;;;;;;;33.37;28.53;;;10.20;99.90;;;;;;6250255;28;20475;-63
2021/04/28 05:59:22;;;;;;;33.47;28.73;;;10.30;99.90;;;;;;6250250;28;20977;-64
2021/04/28 06:02:24;;;;;;;33.83;30.10;;;10.40;99.90;;;;;;6250407;28;20575;-66
2021/04/28 06:05:27;;;;;;;32.63;29.03;;;10.40;99.90;;;;;;6249656;28;20816;-67
2021/04/28 06:08:30;;;;;;;33.70;29.57;;;10.40;99.90;;;;;;6250563;28;20811;-66
2021/04/28 06:11:32;;;;;;;34.47;30.47;;;10.50;99.90;;;;;;6250198;28;20478;-64
2021/04/28 06:14:35;;;;;;;33.70;30.10;;;10.50;99.90;;;;;;6249964;28;20959;-65
2021/04/28 06:17:38;;;;;;;34.57;29.63;;;10.60;99.90;;;;;;6249883;28;20481;-65
2021/04/28 06:20:40;;;;;;;33.23;29.17;;;10.60;99.90;;;;;;6250476;28;20513;-65
2021/04/28 06:23:42;;;;;;;33.03;29.53;;;10.60;99.90;;;;;;6248385;28;20486;-64
2021/04/28 06:26:46;;;;;;;36.10;30.50;;;10.70;99.90;;;;;;6249791;28;20508;-64
2021/04/28 06:29:49;;;;;;;34.87;31.23;;;10.60;99.90;;;;;;6249490;28;20923;-63
2021/04/28 06:32:51;;;;;;;32.87;29.57;;;10.70;99.90;;;;;;6249531;28;20470;-65
2021/04/28 06:35:53;;;;;;;34.40;28.80;;;10.80;99.90;;;;;;6249137;28;20457;-65
2021/04/28 06:38:56;;;;;;;35.63;29.97;;;10.80;99.90;;;;;;6249913;28;20482;-65
2021/04/28 06:41:58;;;;;;;32.57;28.40;;;10.80;99.90;;;;;;6248512;28;20989;-65
2021/04/28 06:45:02;;;;;;;34.40;28.60;;;10.90;99.90;;;;;;6250116;28;20797;-66
2021/04/28 06:48:06;;;;;;;34.80;29.00;;;11.00;99.90;;;;;;6251197;28;20443;-66
2021/04/28 06:51:08;;;;;;;36.70;29.00;;;11.00;99.90;;;;;;6248118;28;20477;-64
2021/04/28 06:54:10;;;;;;;34.23;29.03;;;11.10;99.90;;;;;;6247464;28;20470;-63
2021/04/28 06:57:13;;;;;;;35.83;29.53;;;11.20;99.90;;;;;;6247310;28;20467;-65
2021/04/28 07:00:17;;;;;;;36.10;28.57;;;11.20;99.50;;;;;;6247551;28;20463;-65
2021/04/28 07:03:19;;;;;;;32.77;29.23;;;11.30;99.80;;;;;;6246962;28;20486;-65
2021/04/28 07:06:22;;;;;;;34.47;29.73;;;11.40;99.40;;;;;;6247259;28;20482;-66
2021/04/28 07:09:24;;;;;;;37.20;31.60;;;11.50;99.50;;;;;;6248745;28;20486;-66
2021/04/28 07:12:26;;;;;;;35.87;30.77;;;11.50;99.00;;;;;;6248382;28;20489;-67
2021/04/28 07:15:30;;;;;;;37.77;29.63;;;11.50;99.00;;;;;;6248546;28;20589;-67
2021/04/28 07:18:36;;;;;;;40.53;29.27;;;11.50;99.20;;;;;;6245698;28;20463;-66
2021/04/28 07:21:38;;;;;;;35.93;28.23;;;11.40;99.00;;;;;;6248268;28;20467;-67
2021/04/28 07:24:41;;;;;;;38.90;29.03;;;11.40;99.40;;;;;;6248375;28;20528;-67
2021/04/28 07:27:43;;;;;;;35.97;26.73;;;11.40;99.20;;;;;;6248353;28;20479;-66
2021/04/28 07:30:46;;;;;;;33.90;24.40;;;11.40;99.50;;;;;;6248884;28;20475;-66
2021/04/28 07:33:49;;;;;;;32.93;26.07;;;11.50;99.30;;;;;;6248693;28;20935;-66
2021/04/28 07:36:51;;;;;;;31.23;24.10;;;11.50;99.40;;;;;;6248466;28;20463;-66
2021/04/28 07:39:54;;;;;;;27.10;22.77;;;11.50;99.40;;;;;;6247552;28;20490;-66
2021/04/28 07:42:58;;;;;;;34.73;25.87;;;11.60;99.40;;;;;;6242187;28;20494;-66
2021/04/28 07:46:01;;;;;;;36.00;26.87;;;11.70;99.10;;;;;;6244736;28;20986;-66
2021/04/28 07:49:04;;;;;;;36.13;25.90;;;11.90;99.10;;;;;;6249680;28;21183;-67
2021/04/28 07:52:07;;;;;;;33.90;25.67;;;12.00;98.50;;;;;;6249416;28;21226;-66
2021/04/28 07:55:11;;;;;;;31.50;24.37;;;12.10;98.10;;;;;;6249965;28;20479;-67
2021/04/28 07:58:14;;;;;;;36.27;24.13;;;12.10;97.90;;;;;;6250617;28;20463;-66
2021/04/28 08:01:17;;;;;;;32.50;26.13;;;12.10;98.10;;;;;;6251852;28;20474;-66
2021/04/28 08:04:20;;;;;;;32.10;22.50;;;12.20;97.70;;;;;;6252378;28;20475;-66
2021/04/28 08:07:22;;;;;;;28.87;23.70;;;12.30;97.80;;;;;;6252972;28;20467;-67
2021/04/28 08:10:25;;;;;;;36.07;25.33;;;12.40;97.40;;;;;;6252606;28;20463;-67
2021/04/28 08:13:27;;;;;;;31.77;24.63;;;12.50;97.50;;;;;;6253428;28;20608;-66
2021/04/28 08:16:33;;;;;;;29.03;22.30;;;12.60;97.10;;;;;;6252906;28;20473;-66
2021/04/28 08:19:36;;;;;;;29.53;24.43;;;12.80;97.40;;;;;;6252670;28;20478;-66
2021/04/28 08:22:39;;;;;;;33.00;24.50;;;13.00;96.50;;;;;;6252271;28;21098;-67
2021/04/28 08:25:42;;;;;;;32.57;23.20;;;13.20;96.00;;;;;;6252268;28;20466;-66
2021/04/28 08:28:47;;;;;;;28.80;23.10;;;13.30;96.00;;;;;;6252269;28;20470;-66
2021/04/28 08:31:50;;;;;;;28.70;23.67;;;13.40;95.50;;;;;;6252488;28;20486;-66
2021/04/28 08:34:55;;;;;;;28.50;23.70;;;13.70;95.10;;;;;;6251976;28;20475;-66
2021/04/28 08:37:57;;;;;;;29.67;23.00;;;13.90;94.50;;;;;;6251832;28;20478;-66
2021/04/28 08:41:00;;;;;;;27.27;22.27;;;13.90;94.10;;;;;;6252434;28;20497;-66
2021/04/28 08:44:05;;;;;;;28.40;23.70;;;13.80;93.90;;;;;;6251704;28;20497;-66
2021/04/28 08:47:10;;;;;;;31.60;24.13;;;13.80;94.00;;;;;;6247182;28;20625;-66
2021/04/28 08:50:14;;;;;;;27.33;22.57;;;13.90;94.00;;;;;;6251750;28;20967;-68
2021/04/28 08:53:18;;;;;;;27.27;23.47;;;13.80;93.50;;;;;;6252083;28;20474;-67
2021/04/28 08:56:21;;;;;;;27.93;22.37;;;13.50;93.90;;;;;;6251581;28;20966;-67
2021/04/28 08:59:23;;;;;;;25.57;21.67;;;13.60;94.00;;;;;;6251410;28;20483;-67
2021/04/28 09:02:27;;;;;;;22.70;19.70;;;13.70;93.40;;;;;;6251461;28;20495;-67
2021/04/28 09:05:31;;;;;;;25.00;20.53;;;13.80;93.00;;;;;;6251318;28;20485;-66
2021/04/28 09:08:33;;;;;;;23.00;18.63;;;13.70;93.10;;;;;;6251351;28;20554;-67
2021/04/28 09:11:41;;;;;;;28.53;21.77;;;13.60;93.30;;;;;;6250944;28;20470;-67
2021/04/28 09:14:46;;;;;;;25.20;21.50;;;13.30;94.10;;;;;;6251325;28;20474;-66
2021/04/28 09:17:52;;;;;;;25.33;21.87;;;13.30;94.30;;;;;;6250970;28;20554;-66
2021/04/28 09:20:57;;;;;;;26.73;23.20;;;13.50;94.30;;;;;;6251175;28;20470;-65
2021/04/28 09:24:16;;;;;;;23.80;21.27;;;13.70;93.60;;;;;;6250632;28;20947;-65
2021/04/28 09:27:31;;;;;;;27.03;23.33;;;13.80;93.40;;;;;;6251233;28;20542;-66
2021/04/28 09:30:33;;;;;;;23.97;21.40;;;13.70;93.70;;;;;;6251033;28;20511;-66
2021/04/28 09:33:58;;;;;;;23.03;20.60;;;13.80;93.90;;;;;;6251098;28;20471;-66
2021/04/28 09:37:09;;;;;;;24.20;21.60;;;14.00;93.60;;;;;;6250720;28;20494;-66
2021/04/28 09:40:12;;;;;;;20.60;18.40;;;14.40;92.60;;;;;;6250810;28;20468;-66
2021/04/28 09:43:15;;;;;;;22.60;20.20;;;14.30;91.80;;;;;;6250470;28;20479;-66
2021/04/28 09:46:17;;;;;;;21.23;19.13;;;14.00;92.60;;;;;;6250718;28;20513;-67
2021/04/28 09:49:20;;;;;;;23.83;20.03;;;14.10;92.60;;;;;;6250567;28;20555;-66
2021/04/28 09:52:43;;;;;;;23.77;19.83;;;14.10;92.50;;;;;;6250140;28;20986;-67
2021/04/28 09:55:46;;;;;;;18.80;16.90;;;14.20;92.30;;;;;;6250506;28;20918;-66
2021/04/28 09:58:49;;;;;;;19.20;17.17;;;14.40;91.70;;;;;;6250333;28;20542;-66
2021/04/28 10:01:57;;;;;;;20.47;18.30;;;14.60;91.90;;;;;;6250833;28;20482;-66
2021/04/28 10:05:17;;;;;;;20.70;18.60;;;14.70;91.50;;;;;;6250201;28;20475;-66
2021/04/28 10:08:31;;;;;;;23.70;21.10;;;14.60;91.20;;;;;;6250483;28;20478;-66
2021/04/28 10:11:33;;;;;;;21.57;19.40;;;14.70;91.30;;;;;;6249292;28;20528;-66
2021/04/28 10:14:37;;;;;;;20.73;18.43;;;14.90;91.10;;;;;;6250208;28;20549;-66
2021/04/28 10:17:40;;;;;;;21.97;19.63;;;14.80;91.10;;;;;;6250001;28;20803;-66
2021/04/28 10:20:45;;;;;;;23.70;21.40;;;14.90;91.30;;;;;;6249324;28;20830;-67
2021/04/28 10:23:47;;;;;;;23.13;20.80;;;15.20;90.90;;;;;;6249685;28;20475;-66
2021/04/28 10:26:50;;;;;;;22.13;19.07;;;15.40;90.00;;;;;;6249656;28;20776;-65
2021/04/28 10:29:53;;;;;;;21.23;19.20;;;15.70;90.00;;;;;;6250003;28;20451;-66
2021/04/28 10:32:57;;;;;;;21.30;19.13;;;16.00;88.10;;;;;;6249511;28;20463;-66
2021/04/28 10:36:05;;;;;;;20.77;18.50;;;15.90;88.10;;;;;;6248254;28;20447;-66
2021/04/28 10:39:09;;;;;;;18.27;16.37;;;16.10;88.60;;;;;;6241189;28;20475;-65
2021/04/28 10:42:24;;;;;;;18.47;16.50;;;16.40;86.70;;;;;;6248294;28;20467;-64
2021/04/28 10:45:38;;;;;;;18.50;16.60;;;16.90;85.20;;;;;;6245113;28;20471;-65
2021/04/28 10:49:17;;;;;;;17.77;16.07;;;17.40;82.10;;;;;;6248413;28;20463;-64
2021/04/28 10:52:28;;;;;;;19.77;17.73;;;16.70;81.60;;;;;;6248244;28;20462;-66
2021/04/28 10:55:53;;;;;;;18.83;16.87;;;16.60;81.50;;;;;;6248756;28;20473;-65
2021/04/28 10:58:55;;;;;;;18.23;16.53;;;16.60;82.40;;;;;;6248936;28;20478;-65
2021/04/28 11:02:05;;;;;;;15.57;13.97;;;16.10;83.70;;;;;;6248727;28;20550;-64
2021/04/28 11:05:11;;;;;;;17.03;15.30;;;16.10;82.90;;;;;;6248221;28;20493;-64
2021/04/28 11:08:14;;;;;;;17.57;15.93;;;16.10;82.90;;;;;;6248775;28;20463;-63
2021/04/28 11:11:38;;;;;;;19.27;16.83;;;16.10;83.60;;;;;;6248778;28;20471;-66
2021/04/28 11:14:48;;;;;;;18.27;16.47;;;15.90;84.40;;;;;;6224264;28;20978;-64
2021/04/28 11:17:50;;;;;;;19.50;17.63;;;16.00;84.30;;;;;;6231697;28;20461;-63
2021/04/28 11:21:26;;;;;;;18.17;16.50;;;15.90;84.60;;;;;;6249832;28;20482;-66
2021/04/28 11:24:57;;;;;;;17.50;14.90;;;16.00;84.30;;;;;;6253514;28;20966;-65
2021/04/28 11:28:04;;;;;;;15.50;13.90;;;15.90;84.50;;;;;;6253837;28;20463;-65
2021/04/28 11:31:06;;;;;;;17.00;15.30;;;16.10;84.20;;;;;;6253166;28;20473;-64
2021/04/28 11:34:33;;;;;;;16.67;15.00;;;16.20;84.10;;;;;;6253118;28;20466;-65
2021/04/28 11:37:36;;;;;;;17.10;15.30;;;16.10;84.10;;;;;;6253153;28;21063;-67
2021/04/28 11:40:49;;;;;;;14.80;13.30;;;16.10;83.30;;;;;;6253161;28;20989;-65
2021/04/28 11:43:54;;;;;;;16.73;14.20;;;16.30;82.40;;;;;;6253102;28;20551;-64
2021/04/28 11:47:06;;;;;;;16.70;14.93;;;16.10;82.00;;;;;;6253053;28;20942;-67
2021/04/28 11:50:10;;;;;;;18.03;15.17;;;16.00;82.80;;;;;;6252918;28;20799;-63
2021/04/28 11:53:13;;;;;;;19.87;15.93;;;16.30;82.90;;;;;;6253098;28;20471;-65
2021/04/28 11:56:38;;;;;;;16.87;15.10;;;16.30;82.80;;;;;;6252985;28;20470;-65
2021/04/28 11:59:41;;;;;;;16.37;14.67;;;16.30;83.10;;;;;;6243502;28;20990;-65
2021/04/28 12:02:44;;;;;;;19.20;16.07;;;16.10;84.30;;;;;;6252648;28;21005;-66
2021/04/28 12:05:47;;;;;;;18.17;16.10;;;16.00;83.50;;;;;;6252485;28;20479;-65
2021/04/28 12:09:02;;;;;;;16.23;14.73;;;16.10;84.90;;;;;;6252804;28;20962;-67
2021/04/28 12:12:24;;;;;;;16.63;15.13;;;16.50;83.80;;;;;;6252319;28;20497;-66
2021/04/28 12:15:27;;;;;;;16.70;15.10;;;16.70;81.60;;;;;;6250873;28;20467;-67
2021/04/28 12:18:31;;;;;;;19.73;17.90;;;16.70;81.60;;;;;;6252179;28;20474;-66
2021/04/28 12:21:33;;;;;;;15.60;14.20;;;15.90;83.90;;;;;;6252127;28;20467;-66
2021/04/28 12:24:37;;;;;;;16.47;14.87;;;16.00;84.80;;;;;;6249285;28;20479;-64
2021/04/28 12:27:41;;;;;;;18.80;16.70;;;16.30;83.50;;;;;;6252256;28;20482;-63
2021/04/28 12:30:43;;;;;;;17.27;15.63;;;16.60;82.80;;;;;;6252096;28;20565;-61
2021/04/28 12:33:45;;;;;;;17.60;16.00;;;16.60;82.20;;;;;;6250305;28;20483;-64
2021/04/28 12:36:48;;;;;;;16.47;14.60;;;16.50;82.50;;;;;;6251636;28;20479;-64
2021/04/28 12:39:53;;;;;;;20.10;16.63;;;16.10;83.80;;;;;;6252025;28;20474;-64
2021/04/28 12:42:56;;;;;;;20.30;16.30;;;16.30;83.80;;;;;;6251590;28;20557;-65
2021/04/28 12:46:03;;;;;;;18.40;16.23;;;16.40;84.00;;;;;;6251477;28;20471;-65
2021/04/28 12:49:05;;;;;;;20.17;17.00;;;16.10;85.00;;;;;;6251412;28;20981;-65
2021/04/28 12:52:14;;;;;;;17.93;16.13;;;16.20;85.00;;;;;;6250842;28;20474;-65
2021/04/28 12:55:31;;;;;;;17.37;15.20;;;16.20;84.60;;;;;;6250111;28;20506;-65
2021/04/28 12:58:44;;;;;;;16.53;14.80;;;15.90;85.60;;;;;;6250527;28;20467;-66
2021/04/28 13:01:59;;;;;;;18.27;16.37;;;15.70;86.50;;;;;;6230176;28;20570;-62
2021/04/28 13:05:02;;;;;;;17.07;15.37;;;15.50;86.80;;;;;;6243982;28;20816;-69
2021/04/28 13:08:34;;;;;;;18.20;16.37;;;15.40;87.50;;;;;;6251500;28;20951;-64
2021/04/28 13:11:42;;;;;;;18.30;16.40;;;15.30;88.70;;;;;;6217519;28;20494;-65
2021/04/28 13:14:49;;;;;;;15.47;14.00;;;15.00;89.40;;;;;;6249692;28;20482;-66
2021/04/28 13:18:00;;;;;;;16.20;14.60;;;14.90;90.00;;;;;;6250710;28;20455;-65
2021/04/28 13:21:20;;;;;;;17.17;14.03;;;15.00;90.00;;;;;;6250724;28;20564;-67
2021/04/28 13:24:25;;;;;;;15.60;13.93;;;15.00;90.30;;;;;;6251130;28;20475;-66
2021/04/28 13:27:28;;;;;;;12.90;11.60;;;15.20;90.20;;;;;;6251213;28;20474;-67
2021/04/28 13:30:31;;;;;;;12.37;11.13;;;15.40;89.00;;;;;;6250645;28;20927;-67
2021/04/28 13:33:37;;;;;;;13.63;11.07;;;15.50;88.10;;;;;;6250544;28;21003;-67
2021/04/28 13:36:45;;;;;;;13.40;10.80;;;15.40;88.60;;;;;;6250906;28;20481;-66
2021/04/28 13:39:48;;;;;;;11.43;10.23;;;15.30;89.00;;;;;;6250360;28;20549;-67
2021/04/28 13:42:50;;;;;;;11.67;9.17;;;15.40;89.10;;;;;;6226130;28;20476;-66
2021/04/28 13:45:53;;;;;;;9.90;9.00;;;15.40;89.30;;;;;;6235097;28;20557;-65
2021/04/28 13:48:56;;;;;;;13.10;9.60;;;15.50;89.20;;;;;;6249909;28;20460;-62
2021/04/28 13:52:00;;;;;;;10.60;9.60;;;15.40;89.30;;;;;;6250039;28;20497;-65
2021/04/28 13:55:03;;;;;;;10.90;9.87;;;15.30;88.80;;;;;;6250290;28;20475;-65
2021/04/28 13:58:05;;;;;;;10.37;9.30;;;15.30;89.50;;;;;;6249940;28;20472;-65
2021/04/28 14:01:08;;;;;;;10.97;9.87;;;15.40;90.00;;;;;;6249487;28;20819;-65
2021/04/28 14:04:12;;;;;;;11.63;10.43;;;15.50;89.60;;;;;;6244273;28;20470;-67
2021/04/28 14:07:15;;;;;;;12.50;10.03;;;15.30;89.40;;;;;;6249891;28;20475;-68
2021/04/28 14:10:17;;;;;;;11.30;9.27;;;15.20;90.00;;;;;;6249898;28;20542;-64
2021/04/28 14:13:19;;;;;;;12.30;11.10;;;15.10;90.00;;;;;;6249317;28;20467;-67
2021/04/28 14:16:23;;;;;;;10.67;9.57;;;15.10;90.10;;;;;;6249573;28;20843;-66
2021/04/28 14:19:26;;;;;;;13.97;10.30;;;15.20;89.40;;;;;;6249374;28;20476;-69
2021/04/28 14:22:30;;;;;;;11.10;9.93;;;15.40;89.40;;;;;;6267817;28;20481;-68
2021/04/28 14:25:32;;;;;;;10.70;9.77;;;15.50;89.10;;;;;;6274320;28;20470;-65
2021/04/28 14:28:35;;;;;;;12.17;10.70;;;15.80;88.50;;;;;;6274561;28;20465;-66
2021/04/28 14:31:38;;;;;;;13.60;11.93;;;15.80;88.10;;;;;;6274069;28;20470;-69
2021/04/28 14:34:41;;;;;;;15.23;13.03;;;15.90;88.10;;;;;;6273793;28;20470;-66
2021/04/28 14:37:43;;;;;;;12.77;11.47;;;15.60;88.30;;;;;;6273778;28;20470;-67
2021/04/28 14:40:46;;;;;;;13.07;11.67;;;15.40;89.60;;;;;;6273742;28;20619;-68
2021/04/28 14:43:49;;;;;;;15.03;12.00;;;15.40;89.80;;;;;;6273663;28;20489;-65
2021/04/28 14:46:52;;;;;;;14.87;13.07;;;15.50;90.00;;;;;;6255485;28;20467;-68
2021/04/28 14:49:56;;;;;;;14.97;13.40;;;15.60;89.90;;;;;;6248704;28;20478;-64
2021/04/28 14:52:58;;;;;;;15.53;13.93;;;15.60;89.80;;;;;;6248700;28;20482;-67
2021/04/28 14:56:00;;;;;;;18.77;13.23;;;15.60;89.80;;;;;;6251649;28;20467;-65
2021/04/28 14:59:05;;;;;;;13.57;12.17;;;15.70;89.90;;;;;;6256778;28;20467;-66
2021/04/28 15:02:09;;;;;;;15.80;12.50;;;15.80;89.00;;;;;;6256391;28;20620;-65
2021/04/28 15:05:13;;;;;;;14.93;12.87;;;15.80;89.00;;;;;;6272044;28;20488;-65
2021/04/28 15:08:15;;;;;;;15.00;12.97;;;15.80;88.70;;;;;;6281718;28;20478;-66
2021/04/28 15:11:18;;;;;;;13.17;11.77;;;15.90;88.10;;;;;;6267987;28;20493;-66
2021/04/28 15:14:20;;;;;;;14.57;13.07;;;15.90;87.90;;;;;;6263843;28;20478;-67
2021/04/28 15:17:23;;;;;;;14.97;13.33;;;16.00;87.70;;;;;;6256640;28;20807;-67
2021/04/28 15:20:26;;;;;;;16.63;14.37;;;15.90;87.70;;;;;;6258323;28;20489;-67
2021/04/28 15:23:29;;;;;;;13.63;11.93;;;15.60;88.40;;;;;;6278485;28;20478;-67
2021/04/28 15:26:31;;;;;;;13.47;11.87;;;15.40;89.70;;;;;;6256828;28;21009;-68
2021/04/28 15:29:34;;;;;;;15.07;13.20;;;15.40;89.70;;;;;;6256936;28;20553;-66
2021/04/28 15:32:37;;;;;;;15.43;13.87;;;15.30;90.00;;;;;;6256665;28;20466;-67
2021/04/28 15:35:40;;;;;;;16.40;14.27;;;15.10;90.50;;;;;;6256831;28;20993;-66
2021/04/28 15:38:42;;;;;;;19.53;14.80;;;15.10;90.70;;;;;;6256155;28;20985;-67
2021/04/28 15:41:44;;;;;;;17.17;14.00;;;14.70;91.30;;;;;;6256059;28;20479;-67